sensor_id;sensor_type;location;lat;lon;timestamp;temperature;humidity
10538;DHT22;5317;49.048;8.468;2023-05-23T00:01:21;23.40;72.90
10538;DHT22;5317;49.048;8.468;2023-05-23T00:03:49;23.30;73.20
10538;DHT22;5317;49.048;8.468;2023-05-23T00:06:19;23.20;73.50
10538;DHT22;5317;49.048;8.468;2023-05-23T00:08:46;23.20;73.70
10538;DHT22;5317;49.048;8.468;2023-05-23T00:11:13;23.20;73.70
10538;DHT22;5317;49.048;8.468;2023-05-23T00:13:42;23.20;73.80
10538;DHT22;5317;49.048;8.468;2023-05-23T00:16:09;23.20;73.80
10538;DHT22;5317;49.048;8.468;2023-05-23T00:18:36;23.20;73.90
10538;DHT22;5317;49.048;8.468;2023-05-23T00:21:04;23.20;73.90
10538;DHT22;5317;49.048;8.468;2023-05-23T00:23:31;23.20;74.00
10538;DHT22;5317;49.048;8.468;2023-05-23T00:25:58;23.30;74.20
10538;DHT22;5317;49.048;8.468;2023-05-23T00:28:25;23.30;74.20
10538;DHT22;5317;49.048;8.468;2023-05-23T00:30:53;23.30;74.20
10538;DHT22;5317;49.048;8.468;2023-05-23T00:33:20;23.30;74.30
10538;DHT22;5317;49.048;8.468;2023-05-23T00:35:48;23.30;74.30
10538;DHT22;5317;49.048;8.468;2023-05-23T00:38:15;23.20;74.20
10538;DHT22;5317;49.048;8.468;2023-05-23T00:40:42;23.30;74.40
10538;DHT22;5317;49.048;8.468;2023-05-23T00:43:09;23.30;74.30
10538;DHT22;5317;49.048;8.468;2023-05-23T00:45:36;23.30;74.40
10538;DHT22;5317;49.048;8.468;2023-05-23T00:48:05;23.30;74.50
10538;DHT22;5317;49.048;8.468;2023-05-23T00:50:33;23.30;74.70
10538;DHT22;5317;49.048;8.468;2023-05-23T00:53:00;23.30;74.70
10538;DHT22;5317;49.048;8.468;2023-05-23T00:55:28;23.30;74.90
10538;DHT22;5317;49.048;8.468;2023-05-23T00:57:55;23.30;75.00
10538;DHT22;5317;49.048;8.468;2023-05-23T01:00:24;23.30;75.10
10538;DHT22;5317;49.048;8.468;2023-05-23T01:02:51;23.30;75.20
10538;DHT22;5317;49.048;8.468;2023-05-23T01:05:20;23.30;75.10
10538;DHT22;5317;49.048;8.468;2023-05-23T01:07:49;23.30;75.20
10538;DHT22;5317;49.048;8.468;2023-05-23T01:10:18;23.30;75.30
10538;DHT22;5317;49.048;8.468;2023-05-23T01:12:55;23.40;75.40
10538;DHT22;5317;49.048;8.468;2023-05-23T01:15:28;23.40;75.50
10538;DHT22;5317;49.048;8.468;2023-05-23T01:18:00;23.40;75.60
10538;DHT22;5317;49.048;8.468;2023-05-23T01:20:32;23.40;75.50
10538;DHT22;5317;49.048;8.468;2023-05-23T01:23:28;23.40;75.40
10538;DHT22;5317;49.048;8.468;2023-05-23T01:26:16;23.40;75.80
10538;DHT22;5317;49.048;8.468;2023-05-23T01:28:48;23.40;75.90
10538;DHT22;5317;49.048;8.468;2023-05-23T01:31:16;23.40;75.60
10538;DHT22;5317;49.048;8.468;2023-05-23T01:33:45;23.40;75.60
10538;DHT22;5317;49.048;8.468;2023-05-23T01:36:12;23.40;75.60
10538;DHT22;5317;49.048;8.468;2023-05-23T01:38:39;23.30;75.60
10538;DHT22;5317;49.048;8.468;2023-05-23T01:41:07;23.30;75.60
10538;DHT22;5317;49.048;8.468;2023-05-23T01:43:34;23.30;75.70
10538;DHT22;5317;49.048;8.468;2023-05-23T01:46:03;23.30;75.80
10538;DHT22;5317;49.048;8.468;2023-05-23T01:48:31;23.30;76.00
10538;DHT22;5317;49.048;8.468;2023-05-23T01:50:59;23.30;75.80
10538;DHT22;5317;49.048;8.468;2023-05-23T01:53:27;23.20;75.70
10538;DHT22;5317;49.048;8.468;2023-05-23T01:55:56;23.20;75.80
10538;DHT22;5317;49.048;8.468;2023-05-23T01:58:23;23.20;75.70
10538;DHT22;5317;49.048;8.468;2023-05-23T02:00:50;23.20;75.70
10538;DHT22;5317;49.048;8.468;2023-05-23T02:03:18;23.10;75.80
10538;DHT22;5317;49.048;8.468;2023-05-23T02:05:45;23.20;76.10
10538;DHT22;5317;49.048;8.468;2023-05-23T02:08:12;23.10;75.90
10538;DHT22;5317;49.048;8.468;2023-05-23T02:10:39;23.10;76.10
10538;DHT22;5317;49.048;8.468;2023-05-23T02:13:06;23.10;76.10
10538;DHT22;5317;49.048;8.468;2023-05-23T02:15:33;23.10;76.90
10538;DHT22;5317;49.048;8.468;2023-05-23T02:17:59;23.10;76.10
10538;DHT22;5317;49.048;8.468;2023-05-23T02:20:29;23.10;76.20
10538;DHT22;5317;49.048;8.468;2023-05-23T02:22:55;23.00;76.50
10538;DHT22;5317;49.048;8.468;2023-05-23T02:25:23;22.90;76.60
10538;DHT22;5317;49.048;8.468;2023-05-23T02:27:50;22.90;76.90
10538;DHT22;5317;49.048;8.468;2023-05-23T02:30:17;22.90;77.10
10538;DHT22;5317;49.048;8.468;2023-05-23T02:32:44;22.90;77.10
10538;DHT22;5317;49.048;8.468;2023-05-23T02:35:11;22.90;77.20
10538;DHT22;5317;49.048;8.468;2023-05-23T02:37:39;22.90;77.20
10538;DHT22;5317;49.048;8.468;2023-05-23T02:40:07;22.90;77.20
10538;DHT22;5317;49.048;8.468;2023-05-23T02:42:34;22.80;77.20
10538;DHT22;5317;49.048;8.468;2023-05-23T02:45:01;22.80;77.40
10538;DHT22;5317;49.048;8.468;2023-05-23T02:47:28;22.80;78.10
10538;DHT22;5317;49.048;8.468;2023-05-23T02:49:55;22.90;77.30
10538;DHT22;5317;49.048;8.468;2023-05-23T02:52:22;22.90;77.10
10538;DHT22;5317;49.048;8.468;2023-05-23T02:54:50;22.90;77.00
10538;DHT22;5317;49.048;8.468;2023-05-23T02:57:17;22.90;77.10
10538;DHT22;5317;49.048;8.468;2023-05-23T02:59:43;22.90;77.30
10538;DHT22;5317;49.048;8.468;2023-05-23T03:02:10;22.90;77.00
10538;DHT22;5317;49.048;8.468;2023-05-23T03:04:37;23.00;77.10
10538;DHT22;5317;49.048;8.468;2023-05-23T03:07:04;23.00;77.10
10538;DHT22;5317;49.048;8.468;2023-05-23T03:09:32;23.00;77.00
10538;DHT22;5317;49.048;8.468;2023-05-23T03:12:01;23.00;76.80
10538;DHT22;5317;49.048;8.468;2023-05-23T03:14:28;23.00;76.60
10538;DHT22;5317;49.048;8.468;2023-05-23T03:16:55;23.00;76.40
10538;DHT22;5317;49.048;8.468;2023-05-23T03:19:21;23.00;76.10
10538;DHT22;5317;49.048;8.468;2023-05-23T03:21:48;22.90;76.10
10538;DHT22;5317;49.048;8.468;2023-05-23T03:24:16;22.90;76.20
10538;DHT22;5317;49.048;8.468;2023-05-23T03:26:43;22.90;76.10
10538;DHT22;5317;49.048;8.468;2023-05-23T03:29:11;23.00;76.20
10538;DHT22;5317;49.048;8.468;2023-05-23T03:31:38;23.00;76.20
10538;DHT22;5317;49.048;8.468;2023-05-23T03:34:05;22.90;75.90
10538;DHT22;5317;49.048;8.468;2023-05-23T03:36:32;23.00;76.00
10538;DHT22;5317;49.048;8.468;2023-05-23T03:39:00;23.00;75.80
10538;DHT22;5317;49.048;8.468;2023-05-23T03:41:27;23.00;75.70
10538;DHT22;5317;49.048;8.468;2023-05-23T03:43:53;22.90;75.60
10538;DHT22;5317;49.048;8.468;2023-05-23T03:46:22;22.90;75.40
10538;DHT22;5317;49.048;8.468;2023-05-23T03:48:48;22.90;75.50
10538;DHT22;5317;49.048;8.468;2023-05-23T03:51:16;22.90;75.60
10538;DHT22;5317;49.048;8.468;2023-05-23T03:53:42;22.80;75.40
10538;DHT22;5317;49.048;8.468;2023-05-23T03:56:09;22.80;75.50
10538;DHT22;5317;49.048;8.468;2023-05-23T03:58:36;22.90;75.60
10538;DHT22;5317;49.048;8.468;2023-05-23T04:01:03;22.80;75.60
10538;DHT22;5317;49.048;8.468;2023-05-23T04:03:31;22.80;75.60
10538;DHT22;5317;49.048;8.468;2023-05-23T04:05:59;22.90;75.70
10538;DHT22;5317;49.048;8.468;2023-05-23T04:08:26;22.90;75.60
10538;DHT22;5317;49.048;8.468;2023-05-23T04:10:53;22.90;75.50
10538;DHT22;5317;49.048;8.468;2023-05-23T04:13:20;22.90;75.50
10538;DHT22;5317;49.048;8.468;2023-05-23T04:15:49;22.90;75.40
10538;DHT22;5317;49.048;8.468;2023-05-23T04:18:17;22.80;75.10
10538;DHT22;5317;49.048;8.468;2023-05-23T04:20:45;22.90;75.10
10538;DHT22;5317;49.048;8.468;2023-05-23T04:23:12;22.90;75.00
10538;DHT22;5317;49.048;8.468;2023-05-23T04:25:39;22.90;75.10
10538;DHT22;5317;49.048;8.468;2023-05-23T04:28:06;22.80;75.00
10538;DHT22;5317;49.048;8.468;2023-05-23T04:30:34;22.80;75.20
10538;DHT22;5317;49.048;8.468;2023-05-23T04:33:02;22.90;75.10
10538;DHT22;5317;49.048;8.468;2023-05-23T04:35:29;22.80;74.90
10538;DHT22;5317;49.048;8.468;2023-05-23T04:38:00;22.80;74.80
10538;DHT22;5317;49.048;8.468;2023-05-23T04:40:28;22.80;74.50
10538;DHT22;5317;49.048;8.468;2023-05-23T04:42:55;22.80;74.40
10538;DHT22;5317;49.048;8.468;2023-05-23T04:45:23;22.80;74.20
10538;DHT22;5317;49.048;8.468;2023-05-23T04:47:51;22.80;74.20
10538;DHT22;5317;49.048;8.468;2023-05-23T04:50:19;22.80;74.20
10538;DHT22;5317;49.048;8.468;2023-05-23T04:52:46;22.80;74.10
10538;DHT22;5317;49.048;8.468;2023-05-23T04:55:15;22.80;74.20
10538;DHT22;5317;49.048;8.468;2023-05-23T04:57:41;22.70;74.50
10538;DHT22;5317;49.048;8.468;2023-05-23T05:00:09;22.80;75.00
10538;DHT22;5317;49.048;8.468;2023-05-23T05:02:38;22.80;74.90
10538;DHT22;5317;49.048;8.468;2023-05-23T05:05:05;22.80;74.30
10538;DHT22;5317;49.048;8.468;2023-05-23T05:07:32;22.80;74.30
10538;DHT22;5317;49.048;8.468;2023-05-23T05:10:00;22.80;74.20
10538;DHT22;5317;49.048;8.468;2023-05-23T05:12:28;22.80;73.90
10538;DHT22;5317;49.048;8.468;2023-05-23T05:14:55;22.80;73.70
10538;DHT22;5317;49.048;8.468;2023-05-23T05:17:22;22.80;73.40
10538;DHT22;5317;49.048;8.468;2023-05-23T05:19:49;22.90;73.40
10538;DHT22;5317;49.048;8.468;2023-05-23T05:22:16;22.90;73.30
10538;DHT22;5317;49.048;8.468;2023-05-23T05:24:43;22.90;73.10
10538;DHT22;5317;49.048;8.468;2023-05-23T05:27:09;22.90;73.50
10538;DHT22;5317;49.048;8.468;2023-05-23T05:29:38;23.00;72.30
10538;DHT22;5317;49.048;8.468;2023-05-23T05:32:05;23.00;72.40
10538;DHT22;5317;49.048;8.468;2023-05-23T05:34:33;23.10;72.20
10538;DHT22;5317;49.048;8.468;2023-05-23T05:37:02;23.10;71.70
10538;DHT22;5317;49.048;8.468;2023-05-23T05:39:29;23.00;71.30
10538;DHT22;5317;49.048;8.468;2023-05-23T05:41:56;23.10;71.00
10538;DHT22;5317;49.048;8.468;2023-05-23T05:44:22;23.10;71.00
10538;DHT22;5317;49.048;8.468;2023-05-23T05:46:51;23.10;70.90
10538;DHT22;5317;49.048;8.468;2023-05-23T05:49:18;23.20;71.00
10538;DHT22;5317;49.048;8.468;2023-05-23T05:51:44;23.20;70.60
10538;DHT22;5317;49.048;8.468;2023-05-23T05:54:11;23.20;70.20
10538;DHT22;5317;49.048;8.468;2023-05-23T05:56:38;23.20;69.80
10538;DHT22;5317;49.048;8.468;2023-05-23T05:59:06;23.20;69.10
10538;DHT22;5317;49.048;8.468;2023-05-23T06:01:33;23.30;68.90
10538;DHT22;5317;49.048;8.468;2023-05-23T06:04:01;23.30;69.10
10538;DHT22;5317;49.048;8.468;2023-05-23T06:06:28;23.20;68.70
10538;DHT22;5317;49.048;8.468;2023-05-23T06:08:56;23.20;68.30
10538;DHT22;5317;49.048;8.468;2023-05-23T06:11:23;23.30;68.60
10538;DHT22;5317;49.048;8.468;2023-05-23T06:13:49;23.30;68.60
10538;DHT22;5317;49.048;8.468;2023-05-23T06:16:16;23.30;68.70
10538;DHT22;5317;49.048;8.468;2023-05-23T06:18:43;23.30;68.10
10538;DHT22;5317;49.048;8.468;2023-05-23T06:21:11;23.30;68.30
10538;DHT22;5317;49.048;8.468;2023-05-23T06:23:39;23.30;68.20
10538;DHT22;5317;49.048;8.468;2023-05-23T06:26:05;23.30;68.20
10538;DHT22;5317;49.048;8.468;2023-05-23T06:28:36;23.40;67.30
10538;DHT22;5317;49.048;8.468;2023-05-23T06:31:03;23.40;66.50
10538;DHT22;5317;49.048;8.468;2023-05-23T06:33:30;23.40;66.20
10538;DHT22;5317;49.048;8.468;2023-05-23T06:35:57;23.40;66.00
10538;DHT22;5317;49.048;8.468;2023-05-23T06:38:27;23.40;66.10
10538;DHT22;5317;49.048;8.468;2023-05-23T06:40:55;23.40;65.80
10538;DHT22;5317;49.048;8.468;2023-05-23T06:43:21;23.40;65.80
10538;DHT22;5317;49.048;8.468;2023-05-23T06:45:49;23.20;66.00
10538;DHT22;5317;49.048;8.468;2023-05-23T06:48:15;23.30;66.40
10538;DHT22;5317;49.048;8.468;2023-05-23T06:50:42;23.30;66.30
10538;DHT22;5317;49.048;8.468;2023-05-23T06:53:09;23.30;66.10
10538;DHT22;5317;49.048;8.468;2023-05-23T06:55:37;23.30;65.70
10538;DHT22;5317;49.048;8.468;2023-05-23T06:58:04;23.40;65.40
10538;DHT22;5317;49.048;8.468;2023-05-23T07:00:31;23.30;64.90
10538;DHT22;5317;49.048;8.468;2023-05-23T07:02:58;23.30;64.90
10538;DHT22;5317;49.048;8.468;2023-05-23T07:05:26;23.30;65.10
10538;DHT22;5317;49.048;8.468;2023-05-23T07:07:54;23.30;65.10
10538;DHT22;5317;49.048;8.468;2023-05-23T07:10:20;23.30;64.70
10538;DHT22;5317;49.048;8.468;2023-05-23T07:12:50;23.30;64.50
10538;DHT22;5317;49.048;8.468;2023-05-23T07:15:17;23.30;64.50
10538;DHT22;5317;49.048;8.468;2023-05-23T07:17:44;23.40;64.80
10538;DHT22;5317;49.048;8.468;2023-05-23T07:20:11;23.40;64.80
10538;DHT22;5317;49.048;8.468;2023-05-23T07:22:38;23.50;64.50
10538;DHT22;5317;49.048;8.468;2023-05-23T07:25:06;23.40;64.00
10538;DHT22;5317;49.048;8.468;2023-05-23T07:27:34;23.50;64.30
10538;DHT22;5317;49.048;8.468;2023-05-23T07:30:03;23.50;64.30
10538;DHT22;5317;49.048;8.468;2023-05-23T07:32:31;23.50;64.20
10538;DHT22;5317;49.048;8.468;2023-05-23T07:34:58;23.50;64.10
10538;DHT22;5317;49.048;8.468;2023-05-23T07:37:25;23.40;63.70
10538;DHT22;5317;49.048;8.468;2023-05-23T07:39:52;23.40;63.50
10538;DHT22;5317;49.048;8.468;2023-05-23T07:42:19;23.40;63.60
10538;DHT22;5317;49.048;8.468;2023-05-23T07:44:46;23.40;63.10
10538;DHT22;5317;49.048;8.468;2023-05-23T07:47:14;23.40;63.30
10538;DHT22;5317;49.048;8.468;2023-05-23T07:49:41;23.40;63.50
10538;DHT22;5317;49.048;8.468;2023-05-23T07:52:09;23.40;63.30
10538;DHT22;5317;49.048;8.468;2023-05-23T07:54:35;23.50;63.30
10538;DHT22;5317;49.048;8.468;2023-05-23T07:57:03;23.40;63.10
10538;DHT22;5317;49.048;8.468;2023-05-23T07:59:31;23.40;62.80
10538;DHT22;5317;49.048;8.468;2023-05-23T08:01:58;23.40;62.70
10538;DHT22;5317;49.048;8.468;2023-05-23T08:04:27;23.40;63.00
10538;DHT22;5317;49.048;8.468;2023-05-23T08:06:54;23.50;62.70
10538;DHT22;5317;49.048;8.468;2023-05-23T08:09:21;23.50;62.30
10538;DHT22;5317;49.048;8.468;2023-05-23T08:11:48;23.40;62.30
10538;DHT22;5317;49.048;8.468;2023-05-23T08:14:15;23.40;62.30
10538;DHT22;5317;49.048;8.468;2023-05-23T08:16:42;23.40;62.10
10538;DHT22;5317;49.048;8.468;2023-05-23T08:19:11;23.50;62.30
10538;DHT22;5317;49.048;8.468;2023-05-23T08:21:40;23.40;61.80
10538;DHT22;5317;49.048;8.468;2023-05-23T08:24:07;23.50;61.70
10538;DHT22;5317;49.048;8.468;2023-05-23T08:26:33;23.50;61.60
10538;DHT22;5317;49.048;8.468;2023-05-23T08:29:02;23.60;61.60
10538;DHT22;5317;49.048;8.468;2023-05-23T08:31:29;23.60;61.20
10538;DHT22;5317;49.048;8.468;2023-05-23T08:33:56;23.60;60.70
10538;DHT22;5317;49.048;8.468;2023-05-23T08:36:23;23.60;60.50
10538;DHT22;5317;49.048;8.468;2023-05-23T08:38:51;23.70;61.10
10538;DHT22;5317;49.048;8.468;2023-05-23T08:41:19;23.60;60.60
10538;DHT22;5317;49.048;8.468;2023-05-23T08:43:47;23.70;60.80
10538;DHT22;5317;49.048;8.468;2023-05-23T08:46:14;23.70;61.00
10538;DHT22;5317;49.048;8.468;2023-05-23T08:48:42;23.70;60.70
10538;DHT22;5317;49.048;8.468;2023-05-23T08:51:09;23.80;60.70
10538;DHT22;5317;49.048;8.468;2023-05-23T08:53:39;23.80;60.70
10538;DHT22;5317;49.048;8.468;2023-05-23T08:56:09;23.70;60.60
10538;DHT22;5317;49.048;8.468;2023-05-23T08:58:35;23.80;60.80
10538;DHT22;5317;49.048;8.468;2023-05-23T09:01:03;23.80;60.70
10538;DHT22;5317;49.048;8.468;2023-05-23T09:03:30;23.80;60.90
10538;DHT22;5317;49.048;8.468;2023-05-23T09:05:57;23.80;61.20
10538;DHT22;5317;49.048;8.468;2023-05-23T09:08:24;23.80;61.20
10538;DHT22;5317;49.048;8.468;2023-05-23T09:10:52;23.80;60.90
10538;DHT22;5317;49.048;8.468;2023-05-23T09:13:21;23.80;60.70
10538;DHT22;5317;49.048;8.468;2023-05-23T09:16:02;23.80;60.70
10538;DHT22;5317;49.048;8.468;2023-05-23T09:18:33;23.90;60.80
10538;DHT22;5317;49.048;8.468;2023-05-23T09:21:01;24.00;60.60
10538;DHT22;5317;49.048;8.468;2023-05-23T09:23:29;24.10;59.90
10538;DHT22;5317;49.048;8.468;2023-05-23T09:26:01;24.20;60.00
10538;DHT22;5317;49.048;8.468;2023-05-23T09:28:29;24.30;60.10
10538;DHT22;5317;49.048;8.468;2023-05-23T09:30:59;24.40;60.00
10538;DHT22;5317;49.048;8.468;2023-05-23T09:33:35;24.50;59.30
10538;DHT22;5317;49.048;8.468;2023-05-23T09:36:03;24.60;58.80
10538;DHT22;5317;49.048;8.468;2023-05-23T09:38:31;24.60;59.00
10538;DHT22;5317;49.048;8.468;2023-05-23T09:40:58;24.60;58.50
10538;DHT22;5317;49.048;8.468;2023-05-23T09:43:25;24.70;58.30
10538;DHT22;5317;49.048;8.468;2023-05-23T09:45:59;24.70;58.20
10538;DHT22;5317;49.048;8.468;2023-05-23T09:48:29;24.70;57.90
10538;DHT22;5317;49.048;8.468;2023-05-23T09:50:56;24.70;57.90
10538;DHT22;5317;49.048;8.468;2023-05-23T09:53:23;24.70;58.20
10538;DHT22;5317;49.048;8.468;2023-05-23T09:55:50;24.70;58.20
10538;DHT22;5317;49.048;8.468;2023-05-23T09:58:18;24.70;57.70
10538;DHT22;5317;49.048;8.468;2023-05-23T10:00:46;24.70;58.10
10538;DHT22;5317;49.048;8.468;2023-05-23T10:03:21;24.70;57.20
10538;DHT22;5317;49.048;8.468;2023-05-23T10:05:54;24.80;57.70
10538;DHT22;5317;49.048;8.468;2023-05-23T10:08:24;24.80;57.80
10538;DHT22;5317;49.048;8.468;2023-05-23T10:14:01;24.90;57.00
10538;DHT22;5317;49.048;8.468;2023-05-23T10:16:36;25.00;55.70
10538;DHT22;5317;49.048;8.468;2023-05-23T10:19:12;24.90;55.60
10538;DHT22;5317;49.048;8.468;2023-05-23T10:21:43;24.90;56.80
10538;DHT22;5317;49.048;8.468;2023-05-23T10:24:11;25.00;57.00
10538;DHT22;5317;49.048;8.468;2023-05-23T10:26:39;25.10;57.10
10538;DHT22;5317;49.048;8.468;2023-05-23T10:29:06;25.10;57.00
10538;DHT22;5317;49.048;8.468;2023-05-23T10:31:34;25.20;57.00
10538;DHT22;5317;49.048;8.468;2023-05-23T10:34:13;25.20;57.10
10538;DHT22;5317;49.048;8.468;2023-05-23T10:36:51;25.30;57.00
10538;DHT22;5317;49.048;8.468;2023-05-23T10:39:26;25.30;56.40
10538;DHT22;5317;49.048;8.468;2023-05-23T10:41:57;25.30;56.90
10538;DHT22;5317;49.048;8.468;2023-05-23T10:44:28;25.30;57.20
10538;DHT22;5317;49.048;8.468;2023-05-23T10:46:56;25.30;56.80
10538;DHT22;5317;49.048;8.468;2023-05-23T10:49:39;25.30;56.80
10538;DHT22;5317;49.048;8.468;2023-05-23T10:52:09;25.30;56.40
10538;DHT22;5317;49.048;8.468;2023-05-23T10:54:41;25.30;57.00
10538;DHT22;5317;49.048;8.468;2023-05-23T10:57:09;25.30;57.30
10538;DHT22;5317;49.048;8.468;2023-05-23T10:59:37;25.30;57.20
10538;DHT22;5317;49.048;8.468;2023-05-23T11:02:11;25.30;56.10
10538;DHT22;5317;49.048;8.468;2023-05-23T11:04:39;25.40;56.50
10538;DHT22;5317;49.048;8.468;2023-05-23T11:07:05;25.50;56.60
10538;DHT22;5317;49.048;8.468;2023-05-23T11:10:09;25.60;56.90
10538;DHT22;5317;49.048;8.468;2023-05-23T11:12:37;25.80;56.20
10538;DHT22;5317;49.048;8.468;2023-05-23T11:15:18;25.80;54.90
10538;DHT22;5317;49.048;8.468;2023-05-23T11:17:50;25.90;55.10
10538;DHT22;5317;49.048;8.468;2023-05-23T11:20:18;26.00;54.80
10538;DHT22;5317;49.048;8.468;2023-05-23T11:22:59;26.10;55.30
10538;DHT22;5317;49.048;8.468;2023-05-23T11:25:41;26.10;54.70
10538;DHT22;5317;49.048;8.468;2023-05-23T11:28:09;26.20;55.30
10538;DHT22;5317;49.048;8.468;2023-05-23T11:30:36;26.20;55.90
10538;DHT22;5317;49.048;8.468;2023-05-23T11:33:07;26.10;55.30
10538;DHT22;5317;49.048;8.468;2023-05-23T11:35:38;26.10;54.80
10538;DHT22;5317;49.048;8.468;2023-05-23T11:38:05;26.00;55.20
10538;DHT22;5317;49.048;8.468;2023-05-23T11:40:33;26.00;54.80
10538;DHT22;5317;49.048;8.468;2023-05-23T11:43:03;25.90;55.20
10538;DHT22;5317;49.048;8.468;2023-05-23T11:45:31;25.90;55.70
10538;DHT22;5317;49.048;8.468;2023-05-23T11:47:58;26.00;55.60
10538;DHT22;5317;49.048;8.468;2023-05-23T11:50:30;26.00;55.70
10538;DHT22;5317;49.048;8.468;2023-05-23T11:52:57;26.00;55.20
10538;DHT22;5317;49.048;8.468;2023-05-23T11:55:23;26.00;55.20
10538;DHT22;5317;49.048;8.468;2023-05-23T11:57:51;26.00;55.40
10538;DHT22;5317;49.048;8.468;2023-05-23T12:00:19;25.90;55.30
10538;DHT22;5317;49.048;8.468;2023-05-23T12:02:46;25.90;55.60
10538;DHT22;5317;49.048;8.468;2023-05-23T12:05:14;25.80;55.90
10538;DHT22;5317;49.048;8.468;2023-05-23T12:07:41;25.70;55.50
10538;DHT22;5317;49.048;8.468;2023-05-23T12:10:09;25.60;55.70
10538;DHT22;5317;49.048;8.468;2023-05-23T12:12:39;25.50;55.80
10538;DHT22;5317;49.048;8.468;2023-05-23T12:15:07;25.50;56.00
10538;DHT22;5317;49.048;8.468;2023-05-23T12:17:36;25.40;55.60
10538;DHT22;5317;49.048;8.468;2023-05-23T12:20:04;25.40;56.30
10538;DHT22;5317;49.048;8.468;2023-05-23T12:22:32;25.40;56.30
10538;DHT22;5317;49.048;8.468;2023-05-23T12:24:59;25.40;56.40
10538;DHT22;5317;49.048;8.468;2023-05-23T12:27:27;25.50;56.50
10538;DHT22;5317;49.048;8.468;2023-05-23T12:30:06;25.50;56.60
10538;DHT22;5317;49.048;8.468;2023-05-23T12:32:34;25.50;56.30
10538;DHT22;5317;49.048;8.468;2023-05-23T12:35:03;25.60;56.30
10538;DHT22;5317;49.048;8.468;2023-05-23T12:37:30;25.60;56.60
10538;DHT22;5317;49.048;8.468;2023-05-23T12:39:57;25.70;56.60
10538;DHT22;5317;49.048;8.468;2023-05-23T12:42:23;25.70;56.10
10538;DHT22;5317;49.048;8.468;2023-05-23T12:44:52;25.70;55.80
10538;DHT22;5317;49.048;8.468;2023-05-23T12:47:19;25.80;55.80
10538;DHT22;5317;49.048;8.468;2023-05-23T12:49:46;25.80;55.20
10538;DHT22;5317;49.048;8.468;2023-05-23T12:52:15;25.90;55.60
10538;DHT22;5317;49.048;8.468;2023-05-23T12:54:42;25.90;55.20
10538;DHT22;5317;49.048;8.468;2023-05-23T12:57:09;26.00;55.60
10538;DHT22;5317;49.048;8.468;2023-05-23T12:59:36;26.10;55.00
10538;DHT22;5317;49.048;8.468;2023-05-23T13:02:03;26.20;54.90
10538;DHT22;5317;49.048;8.468;2023-05-23T13:04:30;26.40;56.00
10538;DHT22;5317;49.048;8.468;2023-05-23T13:06:56;26.50;55.70
10538;DHT22;5317;49.048;8.468;2023-05-23T13:09:25;26.50;55.10
10538;DHT22;5317;49.048;8.468;2023-05-23T13:11:52;26.50;54.90
10538;DHT22;5317;49.048;8.468;2023-05-23T13:14:18;26.50;54.90
10538;DHT22;5317;49.048;8.468;2023-05-23T13:16:45;26.60;54.40
10538;DHT22;5317;49.048;8.468;2023-05-23T13:19:12;26.60;54.10
10538;DHT22;5317;49.048;8.468;2023-05-23T13:21:39;26.60;53.90
10538;DHT22;5317;49.048;8.468;2023-05-23T13:24:07;26.60;53.70
10538;DHT22;5317;49.048;8.468;2023-05-23T13:26:35;26.70;53.60
10538;DHT22;5317;49.048;8.468;2023-05-23T13:29:02;26.80;52.80
10538;DHT22;5317;49.048;8.468;2023-05-23T13:31:29;27.00;53.90
10538;DHT22;5317;49.048;8.468;2023-05-23T13:33:56;27.30;53.30
10538;DHT22;5317;49.048;8.468;2023-05-23T13:36:23;27.50;53.30
10538;DHT22;5317;49.048;8.468;2023-05-23T13:38:50;27.60;53.00
10538;DHT22;5317;49.048;8.468;2023-05-23T13:41:17;27.70;52.90
10538;DHT22;5317;49.048;8.468;2023-05-23T13:43:46;27.70;52.20
10538;DHT22;5317;49.048;8.468;2023-05-23T13:46:12;27.60;52.00
10538;DHT22;5317;49.048;8.468;2023-05-23T13:48:39;27.40;52.40
10538;DHT22;5317;49.048;8.468;2023-05-23T13:51:06;27.20;52.00
10538;DHT22;5317;49.048;8.468;2023-05-23T13:53:33;27.00;52.40
10538;DHT22;5317;49.048;8.468;2023-05-23T13:56:00;26.90;52.20
10538;DHT22;5317;49.048;8.468;2023-05-23T13:58:27;26.70;52.00
10538;DHT22;5317;49.048;8.468;2023-05-23T14:00:56;26.60;52.40
10538;DHT22;5317;49.048;8.468;2023-05-23T14:03:22;26.50;52.70
10538;DHT22;5317;49.048;8.468;2023-05-23T14:05:50;26.50;52.90
10538;DHT22;5317;49.048;8.468;2023-05-23T14:08:17;26.50;53.20
10538;DHT22;5317;49.048;8.468;2023-05-23T14:10:43;26.50;53.50
10538;DHT22;5317;49.048;8.468;2023-05-23T14:13:10;26.50;53.70
10538;DHT22;5317;49.048;8.468;2023-05-23T14:15:37;26.60;54.10
10538;DHT22;5317;49.048;8.468;2023-05-23T14:18:07;26.70;53.80
10538;DHT22;5317;49.048;8.468;2023-05-23T14:20:34;26.70;53.40
10538;DHT22;5317;49.048;8.468;2023-05-23T14:23:01;26.80;53.40
10538;DHT22;5317;49.048;8.468;2023-05-23T14:25:28;26.90;53.50
10538;DHT22;5317;49.048;8.468;2023-05-23T14:27:55;27.00;53.20
10538;DHT22;5317;49.048;8.468;2023-05-23T14:30:22;27.00;53.00
10538;DHT22;5317;49.048;8.468;2023-05-23T14:32:48;26.90;52.70
10538;DHT22;5317;49.048;8.468;2023-05-23T14:35:17;26.90;52.50
10538;DHT22;5317;49.048;8.468;2023-05-23T14:37:44;26.80;52.50
10538;DHT22;5317;49.048;8.468;2023-05-23T14:40:11;26.80;52.60
10538;DHT22;5317;49.048;8.468;2023-05-23T14:42:38;26.80;52.90
10538;DHT22;5317;49.048;8.468;2023-05-23T14:45:06;26.80;52.80
10538;DHT22;5317;49.048;8.468;2023-05-23T14:47:33;27.00;53.20
10538;DHT22;5317;49.048;8.468;2023-05-23T14:50:02;27.00;53.20
10538;DHT22;5317;49.048;8.468;2023-05-23T14:52:30;27.20;53.70
10538;DHT22;5317;49.048;8.468;2023-05-23T14:54:57;27.20;53.20
10538;DHT22;5317;49.048;8.468;2023-05-23T14:57:25;27.20;53.00
10538;DHT22;5317;49.048;8.468;2023-05-23T14:59:52;27.30;52.50
10538;DHT22;5317;49.048;8.468;2023-05-23T15:02:19;27.30;52.50
10538;DHT22;5317;49.048;8.468;2023-05-23T15:04:46;27.30;52.30
10538;DHT22;5317;49.048;8.468;2023-05-23T15:07:13;27.20;51.80
10538;DHT22;5317;49.048;8.468;2023-05-23T15:09:44;27.20;52.20
10538;DHT22;5317;49.048;8.468;2023-05-23T15:12:12;27.20;52.20
10538;DHT22;5317;49.048;8.468;2023-05-23T15:14:39;27.20;52.40
10538;DHT22;5317;49.048;8.468;2023-05-23T15:17:07;27.10;53.00
10538;DHT22;5317;49.048;8.468;2023-05-23T15:19:35;27.10;52.70
10538;DHT22;5317;49.048;8.468;2023-05-23T15:22:03;27.10;52.80
10538;DHT22;5317;49.048;8.468;2023-05-23T15:24:30;27.00;51.90
10538;DHT22;5317;49.048;8.468;2023-05-23T15:26:58;26.90;52.20
10538;DHT22;5317;49.048;8.468;2023-05-23T15:29:25;27.00;52.30
10538;DHT22;5317;49.048;8.468;2023-05-23T15:31:52;27.10;52.20
10538;DHT22;5317;49.048;8.468;2023-05-23T15:34:19;27.20;52.10
10538;DHT22;5317;49.048;8.468;2023-05-23T15:36:46;27.20;51.90
10538;DHT22;5317;49.048;8.468;2023-05-23T15:39:13;27.10;51.90
10538;DHT22;5317;49.048;8.468;2023-05-23T15:41:41;27.10;51.80
10538;DHT22;5317;49.048;8.468;2023-05-23T15:44:09;27.10;51.60
10538;DHT22;5317;49.048;8.468;2023-05-23T15:46:38;27.00;51.80
10538;DHT22;5317;49.048;8.468;2023-05-23T15:49:04;27.00;51.70
10538;DHT22;5317;49.048;8.468;2023-05-23T15:51:31;27.00;52.20
10538;DHT22;5317;49.048;8.468;2023-05-23T15:54:00;27.00;51.90